sensor_id;sensor_type;location;lat;lon;timestamp;pressure;altitude;pressure_sealevel;temperature;humidity
65276;BME280;51875;49.994;14.052;2023-01-08T00:00:10;98062.22;;;0.69;100.00
65276;BME280;51875;49.994;14.052;2023-01-08T00:01:30;98061.47;;;0.95;100.00
65276;BME280;51875;49.994;14.052;2023-01-08T00:02:45;98065.56;;;0.54;100.00
65276;BME280;51875;49.994;14.052;2023-01-08T00:04:03;98058.78;;;0.66;100.00
65276;BME280;51875;49.994;14.052;2023-01-08T00:05:19;98060.19;;;0.22;100.00
65276;BME280;51875;49.994;14.052;2023-01-08T00:06:34;98057.66;;;0.26;100.00
65276;BME280;51875;49.994;14.052;2023-01-08T00:07:50;98054.97;;;0.11;100.00
65276;BME280;51875;49.994;14.052;2023-01-08T00:09:06;98060.28;;;0.31;100.00
65276;BME280;51875;49.994;14.052;2023-01-08T00:10:21;98057.66;;;0.23;100.00
65276;BME280;51875;49.994;14.052;2023-01-08T00:11:37;98048.41;;;0.53;100.00
65276;BME280;51875;49.994;14.052;2023-01-08T00:12:54;98050.97;;;0.55;100.00
65276;BME280;51875;49.994;14.052;2023-01-08T00:14:10;98050.06;;;0.45;100.00
65276;BME280;51875;49.994;14.052;2023-01-08T00:15:25;98042.38;;;0.53;100.00
65276;BME280;51875;49.994;14.052;2023-01-08T00:16:41;98045.75;;;0.41;100.00
65276;BME280;51875;49.994;14.052;2023-01-08T00:17:57;98042.31;;;0.42;100.00
65276;BME280;51875;49.994;14.052;2023-01-08T00:19:12;98036.34;;;0.45;100.00
65276;BME280;51875;49.994;14.052;2023-01-08T00:20:28;98044.09;;;0.51;100.00
65276;BME280;51875;49.994;14.052;2023-01-08T00:21:44;98050.91;;;0.41;100.00
65276;BME280;51875;49.994;14.052;2023-01-08T00:22:59;98052.25;;;-0.09;100.00
65276;BME280;51875;49.994;14.052;2023-01-08T00:24:15;98054.91;;;0.00;100.00
65276;BME280;51875;49.994;14.052;2023-01-08T00:25:31;98059.22;;;0.04;100.00
65276;BME280;51875;49.994;14.052;2023-01-08T00:26:46;98054.97;;;0.12;100.00
65276;BME280;51875;49.994;14.052;2023-01-08T00:28:02;98054.22;;;0.24;100.00
65276;BME280;51875;49.994;14.052;2023-01-08T00:29:18;98049.09;;;0.27;100.00
65276;BME280;51875;49.994;14.052;2023-01-08T00:30:33;98050.56;;;-0.04;100.00
65276;BME280;51875;49.994;14.052;2023-01-08T00:31:49;98042.03;;;0.02;100.00
65276;BME280;51875;49.994;14.052;2023-01-08T00:33:05;98042.06;;;0.06;100.00
65276;BME280;51875;49.994;14.052;2023-01-08T00:34:21;98042.09;;;0.09;100.00
65276;BME280;51875;49.994;14.052;2023-01-08T00:35:37;98038.69;;;0.13;100.00
65276;BME280;51875;49.994;14.052;2023-01-08T00:36:52;98036.09;;;0.09;100.00
65276;BME280;51875;49.994;14.052;2023-01-08T00:38:08;98037.81;;;0.10;100.00
65276;BME280;51875;49.994;14.052;2023-01-08T00:39:24;98029.34;;;0.30;100.00
65276;BME280;51875;49.994;14.052;2023-01-08T00:40:39;98030.25;;;0.33;100.00
65276;BME280;51875;49.994;14.052;2023-01-08T00:41:55;98032.03;;;0.45;100.00
65276;BME280;51875;49.994;14.052;2023-01-08T00:43:11;98037.16;;;0.42;100.00
65276;BME280;51875;49.994;14.052;2023-01-08T00:44:26;98031.19;;;0.48;100.00
65276;BME280;51875;49.994;14.052;2023-01-08T00:45:42;98038.00;;;0.38;100.00
65276;BME280;51875;49.994;14.052;2023-01-08T00:46:57;98040.31;;;0.01;100.00
65276;BME280;51875;49.994;14.052;2023-01-08T00:48:13;98037.00;;;0.20;100.00
65276;BME280;51875;49.994;14.052;2023-01-08T00:49:29;98027.66;;;0.35;100.00
65276;BME280;51875;49.994;14.052;2023-01-08T00:50:44;98030.25;;;0.33;100.00
65276;BME280;51875;49.994;14.052;2023-01-08T00:52:00;98031.97;;;0.37;100.00
65276;BME280;51875;49.994;14.052;2023-01-08T00:53:16;98028.53;;;0.35;100.00
65276;BME280;51875;49.994;14.052;2023-01-08T00:54:32;98025.88;;;0.23;100.00
65276;BME280;51875;49.994;14.052;2023-01-08T00:55:48;98026.66;;;0.08;100.00
65276;BME280;51875;49.994;14.052;2023-01-08T00:57:03;98027.53;;;0.13;100.00
65276;BME280;51875;49.994;14.052;2023-01-08T00:58:19;98021.56;;;0.20;100.00
65276;BME280;51875;49.994;14.052;2023-01-08T00:59:34;98016.44;;;0.22;100.00
65276;BME280;51875;49.994;14.052;2023-01-08T01:00:50;98020.56;;;-0.04;100.00
65276;BME280;51875;49.994;14.052;2023-01-08T01:02:05;98017.22;;;0.10;100.00
65276;BME280;51875;49.994;14.052;2023-01-08T01:03:21;98019.88;;;0.27;100.00
65276;BME280;51875;49.994;14.052;2023-01-08T01:04:37;98020.75;;;0.26;100.00
65276;BME280;51875;49.994;14.052;2023-01-08T01:05:59;98019.88;;;0.27;100.00
65276;BME280;51875;49.994;14.052;2023-01-08T01:07:15;98029.31;;;0.25;100.00
65276;BME280;51875;49.994;14.052;2023-01-08T01:08:32;98023.34;;;0.31;100.00
65276;BME280;51875;49.994;14.052;2023-01-08T01:09:48;98019.88;;;0.27;100.00
65276;BME280;51875;49.994;14.052;2023-01-08T01:11:08;98016.44;;;0.25;100.00
65276;BME280;51875;49.994;14.052;2023-01-08T01:12:23;98014.66;;;0.13;100.00
65276;BME280;51875;49.994;14.052;2023-01-08T01:13:39;98019.06;;;0.33;100.00
65276;BME280;51875;49.994;14.052;2023-01-08T01:14:55;98019.16;;;0.48;100.00
65276;BME280;51875;49.994;14.052;2023-01-08T01:16:10;98018.31;;;0.48;100.00
65276;BME280;51875;49.994;14.052;2023-01-08T01:17:26;98016.59;;;0.50;100.00
65276;BME280;51875;49.994;14.052;2023-01-08T01:18:42;98015.66;;;0.38;100.00
65276;BME280;51875;49.994;14.052;2023-01-08T01:19:57;98021.66;;;0.34;100.00
65276;BME280;51875;49.994;14.052;2023-01-08T01:21:27;98014.78;;;0.33;100.00
65276;BME280;51875;49.994;14.052;2023-01-08T01:22:44;98018.22;;;0.32;100.00
65276;BME280;51875;49.994;14.052;2023-01-08T01:24:01;98010.44;;;0.23;100.00
65276;BME280;51875;49.994;14.052;2023-01-08T01:25:17;98014.75;;;0.27;100.00
65276;BME280;51875;49.994;14.052;2023-01-08T01:26:33;98013.00;;;0.23;100.00
65276;BME280;51875;49.994;14.052;2023-01-08T01:27:49;98023.28;;;0.17;100.00
65276;BME280;51875;49.994;14.052;2023-01-08T01:29:05;98011.16;;;0.00;100.00
65276;BME280;51875;49.994;14.052;2023-01-08T01:30:20;98005.94;;;-0.06;100.00
65276;BME280;51875;49.994;14.052;2023-01-08T01:31:36;98017.84;;;-0.21;100.00
65276;BME280;51875;49.994;14.052;2023-01-08T01:32:51;98016.88;;;-0.32;100.00
65276;BME280;51875;49.994;14.052;2023-01-08T01:34:09;98022.97;;;-0.24;100.00
65276;BME280;51875;49.994;14.052;2023-01-08T01:35:24;98019.56;;;-0.17;100.00
65276;BME280;51875;49.994;14.052;2023-01-08T01:36:40;98017.69;;;-0.38;100.00
65276;BME280;51875;49.994;14.052;2023-01-08T01:37:55;98018.50;;;-0.45;100.00
65276;BME280;51875;49.994;14.052;2023-01-08T01:39:11;98012.50;;;-0.43;100.00
65276;BME280;51875;49.994;14.052;2023-01-08T01:40:26;98015.16;;;-0.33;100.00
65276;BME280;51875;49.994;14.052;2023-01-08T01:41:44;98014.41;;;-0.20;100.00
65276;BME280;51875;49.994;14.052;2023-01-08T01:42:59;98022.63;;;-0.58;100.00
65276;BME280;51875;49.994;14.052;2023-01-08T01:45:52;98026.19;;;-0.47;100.00
65276;BME280;51875;49.994;14.052;2023-01-08T01:47:17;98032.13;;;-0.54;100.00
65276;BME280;51875;49.994;14.052;2023-01-08T01:48:34;98016.13;;;-0.19;100.00
65276;BME280;51875;49.994;14.052;2023-01-08T01:50:01;98018.66;;;-0.23;100.00
65276;BME280;51875;49.994;14.052;2023-01-08T01:51:18;98021.31;;;-0.16;100.00
65276;BME280;51875;49.994;14.052;2023-01-08T01:52:37;98022.25;;;-0.07;100.00
65276;BME280;51875;49.994;14.052;2023-01-08T01:53:55;98021.25;;;-0.22;100.00
65276;BME280;51875;49.994;14.052;2023-01-08T01:55:12;98017.88;;;-0.19;100.00
65276;BME280;51875;49.994;14.052;2023-01-08T01:56:29;98008.56;;;-0.02;100.00
65276;BME280;51875;49.994;14.052;2023-01-08T01:57:54;98016.31;;;0.03;100.00
65276;BME280;51875;49.994;14.052;2023-01-08T01:59:13;98015.47;;;0.06;100.00
65276;BME280;51875;49.994;14.052;2023-01-08T02:00:32;98016.91;;;-0.29;100.00
65276;BME280;51875;49.994;14.052;2023-01-08T02:01:48;98018.66;;;-0.26;100.00
65276;BME280;51875;49.994;14.052;2023-01-08T02:03:04;98021.34;;;-0.12;100.00
65276;BME280;51875;49.994;14.052;2023-01-08T02:04:21;98018.78;;;-0.11;100.00
65276;BME280;51875;49.994;14.052;2023-01-08T02:07:46;98016.41;;;0.17;100.00
65276;BME280;51875;49.994;14.052;2023-01-08T02:10:34;98008.78;;;0.34;100.00
65276;BME280;51875;49.994;14.052;2023-01-08T02:13:30;98016.41;;;0.20;100.00
65276;BME280;51875;49.994;14.052;2023-01-08T02:15:18;98007.75;;;0.07;100.00
65276;BME280;51875;49.994;14.052;2023-01-08T02:16:46;98008.69;;;0.16;100.00
65276;BME280;51875;49.994;14.052;2023-01-08T02:18:17;98003.59;;;0.30;100.00
65276;BME280;51875;49.994;14.052;2023-01-08T02:20:56;98003.47;;;0.09;100.00
65276;BME280;51875;49.994;14.052;2023-01-08T02:26:35;97987.19;;;0.10;100.00
65276;BME280;51875;49.994;14.052;2023-01-08T02:27:52;97985.53;;;0.19;100.00
65276;BME280;51875;49.994;14.052;2023-01-08T02:29:12;97986.41;;;0.21;100.00
65276;BME280;51875;49.994;14.052;2023-01-08T02:30:29;97983.72;;;0.02;100.00
65276;BME280;51875;49.994;14.052;2023-01-08T02:31:45;97988.84;;;0.02;100.00
65276;BME280;51875;49.994;14.052;2023-01-08T02:33:01;97984.50;;;-0.08;100.00
65276;BME280;51875;49.994;14.052;2023-01-08T02:34:16;97982.84;;;0.00;100.00
65276;BME280;51875;49.994;14.052;2023-01-08T02:35:47;97973.41;;;0.02;100.00
65276;BME280;51875;49.994;14.052;2023-01-08T02:37:07;97967.44;;;0.08;100.00
65276;BME280;51875;49.994;14.052;2023-01-08T02:38:24;97977.72;;;0.06;100.00
65276;BME280;51875;49.994;14.052;2023-01-08T02:41:45;97973.44;;;0.05;100.00
65276;BME280;51875;49.994;14.052;2023-01-08T02:45:58;97984.50;;;-0.02;100.00
65276;BME280;51875;49.994;14.052;2023-01-08T02:47:40;97982.13;;;0.21;100.00
65276;BME280;51875;49.994;14.052;2023-01-08T02:49:04;97981.31;;;0.30;100.00
65276;BME280;51875;49.994;14.052;2023-01-08T02:50:26;97974.47;;;0.37;100.00
65276;BME280;51875;49.994;14.052;2023-01-08T02:51:48;97977.09;;;0.45;100.00
65276;BME280;51875;49.994;14.052;2023-01-08T02:53:20;97982.22;;;0.43;100.00
65276;BME280;51875;49.994;14.052;2023-01-08T02:54:38;97981.38;;;0.44;100.00
65276;BME280;51875;49.994;14.052;2023-01-08T02:55:58;97979.59;;;0.32;100.00
65276;BME280;51875;49.994;14.052;2023-01-08T02:57:16;97985.56;;;0.26;100.00
65276;BME280;51875;49.994;14.052;2023-01-08T02:58:34;97973.59;;;0.33;100.00
65276;BME280;51875;49.994;14.052;2023-01-08T02:59:51;97971.09;;;0.46;100.00
65276;BME280;51875;49.994;14.052;2023-01-08T03:01:10;97970.28;;;0.62;100.00
65276;BME280;51875;49.994;14.052;2023-01-08T03:02:28;97970.31;;;0.65;100.00
65276;BME280;51875;49.994;14.052;2023-01-08T03:03:51;97968.56;;;0.58;100.00
65276;BME280;51875;49.994;14.052;2023-01-08T03:05:25;97969.44;;;0.69;100.00
65276;BME280;51875;49.994;14.052;2023-01-08T03:06:42;97962.50;;;0.50;100.00
65276;BME280;51875;49.994;14.052;2023-01-08T03:07:58;97971.13;;;0.60;100.00
65276;BME280;51875;49.994;14.052;2023-01-08T03:09:15;97971.16;;;0.64;100.00
65276;BME280;51875;49.994;14.052;2023-01-08T03:10:31;97970.22;;;0.44;100.00
65276;BME280;51875;49.994;14.052;2023-01-08T03:11:59;97975.31;;;0.37;100.00
65276;BME280;51875;49.994;14.052;2023-01-08T03:15:20;97980.28;;;0.05;100.00
65276;BME280;51875;49.994;14.052;2023-01-08T03:16:44;97976.00;;;0.08;100.00
65276;BME280;51875;49.994;14.052;2023-01-08T03:18:06;97971.03;;;0.33;100.00
65276;BME280;51875;49.994;14.052;2023-01-08T03:19:42;97977.00;;;0.34;100.00
65276;BME280;51875;49.994;14.052;2023-01-08T03:21:01;97973.41;;;0.07;100.00
65276;BME280;51875;49.994;14.052;2023-01-08T03:22:18;97973.56;;;0.28;100.00
65276;BME280;51875;49.994;14.052;2023-01-08T03:23:35;97963.31;;;0.36;100.00
65276;BME280;51875;49.994;14.052;2023-01-08T03:24:53;97969.22;;;0.17;100.00
65276;BME280;51875;49.994;14.052;2023-01-08T03:26:10;97968.41;;;0.27;100.00
65276;BME280;51875;49.994;14.052;2023-01-08T03:27:31;97965.84;;;0.32;100.00
65276;BME280;51875;49.994;14.052;2023-01-08T03:28:51;97969.16;;;0.07;100.00
65276;BME280;51875;49.994;14.052;2023-01-08T03:30:09;97967.41;;;0.03;100.00
65276;BME280;51875;49.994;14.052;2023-01-08T03:31:26;97957.13;;;0.03;100.00
65276;BME280;51875;49.994;14.052;2023-01-08T03:32:44;97969.97;;;0.00;100.00
65276;BME280;51875;49.994;14.052;2023-01-08T03:34:03;97966.41;;;-0.18;100.00
65276;BME280;51875;49.994;14.052;2023-01-08T03:35:21;97963.75;;;-0.32;100.00
65276;BME280;51875;49.994;14.052;2023-01-08T03:36:40;97967.13;;;-0.34;100.00
65276;BME280;51875;49.994;14.052;2023-01-08T03:38:04;97959.59;;;-0.11;100.00
65276;BME280;51875;49.994;14.052;2023-01-08T03:39:29;97962.22;;;-0.05;100.00
65276;BME280;51875;49.994;14.052;2023-01-08T03:40:51;97958.69;;;-0.19;100.00
65276;BME280;51875;49.994;14.052;2023-01-08T03:42:11;97958.72;;;-0.13;100.00
65276;BME280;51875;49.994;14.052;2023-01-08T03:43:28;97953.72;;;0.13;100.00
65276;BME280;51875;49.994;14.052;2023-01-08T03:44:44;97955.53;;;0.27;100.00
65276;BME280;51875;49.994;14.052;2023-01-08T03:46:02;97944.34;;;0.19;100.00
65276;BME280;51875;49.994;14.052;2023-01-08T03:47:21;97946.09;;;0.31;100.00
65276;BME280;51875;49.994;14.052;2023-01-08T03:48:37;97955.47;;;0.16;100.00
65276;BME280;51875;49.994;14.052;2023-01-08T03:49:53;97953.66;;;-0.01;100.00
65276;BME280;51875;49.994;14.052;2023-01-08T03:51:10;97946.84;;;0.06;100.00
65276;BME280;51875;49.994;14.052;2023-01-08T03:52:28;97949.53;;;0.33;100.00
65276;BME280;51875;49.994;14.052;2023-01-08T03:53:44;97950.28;;;0.11;100.00
65276;BME280;51875;49.994;14.052;2023-01-08T03:55:02;97953.69;;;0.01;100.00
65276;BME280;51875;49.994;14.052;2023-01-08T03:56:17;97949.44;;;0.12;100.00
65276;BME280;51875;49.994;14.052;2023-01-08T03:57:33;97948.66;;;0.27;100.00
65276;BME280;51875;49.994;14.052;2023-01-08T03:58:49;97947.00;;;0.37;100.00
65276;BME280;51875;49.994;14.052;2023-01-08T04:00:05;97937.41;;;0.05;100.00
65276;BME280;51875;49.994;14.052;2023-01-08T04:01:20;97936.50;;;0.02;100.00
65276;BME280;51875;49.994;14.052;2023-01-08T04:02:36;97927.16;;;0.15;100.00
65276;BME280;51875;49.994;14.052;2023-01-08T04:03:52;97939.09;;;0.05;100.00
65276;BME280;51875;49.994;14.052;2023-01-08T04:05:08;97923.56;;;-0.12;100.00
65276;BME280;51875;49.994;14.052;2023-01-08T04:06:24;97923.59;;;-0.09;100.00
65276;BME280;51875;49.994;14.052;2023-01-08T04:07:43;97924.50;;;0.04;100.00
65276;BME280;51875;49.994;14.052;2023-01-08T04:08:58;97924.59;;;0.18;100.00
65276;BME280;51875;49.994;14.052;2023-01-08T04:10:14;97919.47;;;0.24;100.00
65276;BME280;51875;49.994;14.052;2023-01-08T04:11:30;97915.22;;;0.34;100.00
65276;BME280;51875;49.994;14.052;2023-01-08T04:12:46;97913.50;;;0.33;100.00
65276;BME280;51875;49.994;14.052;2023-01-08T04:14:01;97915.97;;;0.09;100.00
65276;BME280;51875;49.994;14.052;2023-01-08T04:15:17;97910.03;;;0.23;100.00
65276;BME280;51875;49.994;14.052;2023-01-08T04:16:32;97911.75;;;0.24;100.00
65276;BME280;51875;49.994;14.052;2023-01-08T04:17:49;97904.91;;;0.29;100.00
65276;BME280;51875;49.994;14.052;2023-01-08T04:19:04;97902.31;;;0.26;100.00
65276;BME280;51875;49.994;14.052;2023-01-08T04:20:20;97908.38;;;0.34;100.00
65276;BME280;51875;49.994;14.052;2023-01-08T04:21:35;97907.38;;;0.13;100.00
65276;BME280;51875;49.994;14.052;2023-01-08T04:22:51;97906.59;;;0.21;100.00
65276;BME280;51875;49.994;14.052;2023-01-08T04:24:07;97904.88;;;0.21;100.00
65276;BME280;51875;49.994;14.052;2023-01-08T04:25:22;97905.72;;;0.25;100.00
65276;BME280;51875;49.994;14.052;2023-01-08T04:26:38;97909.09;;;0.11;100.00
65276;BME280;51875;49.994;14.052;2023-01-08T04:27:54;97906.53;;;0.11;100.00
65276;BME280;51875;49.994;14.052;2023-01-08T04:29:10;97903.03;;;-0.03;100.00
65276;BME280;51875;49.994;14.052;2023-01-08T04:30:26;97903.03;;;-0.05;100.00
65276;BME280;51875;49.994;14.052;2023-01-08T04:31:42;97897.16;;;0.26;100.00
65276;BME280;51875;49.994;14.052;2023-01-08T04:32:58;97905.69;;;0.17;100.00
65276;BME280;51875;49.994;14.052;2023-01-08T04:34:13;97903.94;;;0.05;100.00
65276;BME280;51875;49.994;14.052;2023-01-08T04:35:29;97903.91;;;-0.03;100.00
65276;BME280;51875;49.994;14.052;2023-01-08T04:36:44;97911.59;;;-0.01;100.00
65276;BME280;51875;49.994;14.052;2023-01-08T04:38:00;97908.09;;;-0.20;100.00
65276;BME280;51875;49.994;14.052;2023-01-08T04:39:15;97917.44;;;-0.32;100.00
65276;BME280;51875;49.994;14.052;2023-01-08T04:40:32;97908.84;;;-0.29;100.00
65276;BME280;51875;49.994;14.052;2023-01-08T04:41:48;97914.25;;;0.08;100.00
65276;BME280;51875;49.994;14.052;2023-01-08T04:43:04;97913.19;;;-0.23;100.00
65276;BME280;51875;49.994;14.052;2023-01-08T04:44:19;97908.25;;;0.12;100.00
65276;BME280;51875;49.994;14.052;2023-01-08T04:45:34;97904.88;;;0.20;100.00
65276;BME280;51875;49.994;14.052;2023-01-08T04:46:50;97898.00;;;0.22;100.00
65276;BME280;51875;49.994;14.052;2023-01-08T04:48:06;97892.88;;;0.23;100.00
65276;BME280;51875;49.994;14.052;2023-01-08T04:49:21;97885.13;;;0.20;100.00
65276;BME280;51875;49.994;14.052;2023-01-08T04:50:37;97883.41;;;0.21;100.00
65276;BME280;51875;49.994;14.052;2023-01-08T04:51:52;97880.88;;;0.32;100.00
65276;BME280;51875;49.994;14.052;2023-01-08T04:53:08;97879.19;;;0.37;100.00
65276;BME280;51875;49.994;14.052;2023-01-08T04:54:24;97884.31;;;0.29;100.00
65276;BME280;51875;49.994;14.052;2023-01-08T04:55:39;97881.78;;;0.37;100.00
65276;BME280;51875;49.994;14.052;2023-01-08T04:56:55;97892.06;;;0.32;100.00
65276;BME280;51875;49.994;14.052;2023-01-08T04:58:11;97892.88;;;0.25;100.00
65276;BME280;51875;49.994;14.052;2023-01-08T04:59:26;97901.44;;;0.24;100.00
65276;BME280;51875;49.994;14.052;2023-01-08T05:00:42;97899.66;;;0.07;100.00
65276;BME280;51875;49.994;14.052;2023-01-08T05:01:58;97899.78;;;0.32;100.00
65276;BME280;51875;49.994;14.052;2023-01-08T05:03:13;97903.13;;;0.20;100.00
65276;BME280;51875;49.994;14.052;2023-01-08T05:04:29;97904.03;;;0.25;100.00
65276;BME280;51875;49.994;14.052;2023-01-08T05:05:45;97895.41;;;0.17;100.00
65276;BME280;51875;49.994;14.052;2023-01-08T05:07:00;97906.63;;;0.28;100.00
65276;BME280;51875;49.994;14.052;2023-01-08T05:08:16;97904.94;;;0.38;100.00
65276;BME280;51875;49.994;14.052;2023-01-08T05:09:32;97905.75;;;0.23;100.00
65276;BME280;51875;49.994;14.052;2023-01-08T05:10:47;97896.31;;;0.27;100.00
65276;BME280;51875;49.994;14.052;2023-01-08T05:12:03;97898.13;;;0.47;100.00
65276;BME280;51875;49.994;14.052;2023-01-08T05:13:19;97893.81;;;0.46;100.00
65276;BME280;51875;49.994;14.052;2023-01-08T05:14:34;97886.94;;;0.46;100.00
65276;BME280;51875;49.994;14.052;2023-01-08T05:15:50;97883.44;;;0.27;100.00
65276;BME280;51875;49.994;14.052;2023-01-08T05:17:05;97884.19;;;0.01;100.00
65276;BME280;51875;49.994;14.052;2023-01-08T05:18:21;97877.34;;;0.03;100.00
65276;BME280;51875;49.994;14.052;2023-01-08T05:19:36;97881.72;;;0.24;100.00
65276;BME280;51875;49.994;14.052;2023-01-08T05:20:52;97886.84;;;0.26;100.00
65276;BME280;51875;49.994;14.052;2023-01-08T05:22:07;97878.31;;;0.35;100.00
65276;BME280;51875;49.994;14.052;2023-01-08T05:23:23;97881.78;;;0.37;100.00
65276;BME280;51875;49.994;14.052;2023-01-08T05:24:39;97875.78;;;0.41;100.00
65276;BME280;51875;49.994;14.052;2023-01-08T05:25:58;97877.53;;;0.51;100.00
65276;BME280;51875;49.994;14.052;2023-01-08T05:27:14;97864.66;;;0.58;100.00
65276;BME280;51875;49.994;14.052;2023-01-08T05:28:30;97871.53;;;0.62;100.00
65276;BME280;51875;49.994;14.052;2023-01-08T05:29:46;97864.69;;;0.64;100.00
65276;BME280;51875;49.994;14.052;2023-01-08T05:31:01;97859.53;;;0.68;100.00
65276;BME280;51875;49.994;14.052;2023-01-08T05:32:17;97865.53;;;0.66;100.00
65276;BME280;51875;49.994;14.052;2023-01-08T05:33:33;97873.28;;;0.66;100.00
65276;BME280;51875;49.994;14.052;2023-01-08T05:34:48;97880.16;;;0.70;100.00
65276;BME280;51875;49.994;14.052;2023-01-08T05:36:06;97876.69;;;0.69;100.00
65276;BME280;51875;49.994;14.052;2023-01-08T05:37:22;97876.72;;;0.71;100.00
65276;BME280;51875;49.994;14.052;2023-01-08T05:38:38;97873.25;;;0.61;100.00
65276;BME280;51875;49.994;14.052;2023-01-08T05:39:54;97874.97;;;0.61;100.00
65276;BME280;51875;49.994;14.052;2023-01-08T05:41:10;97875.84;;;0.61;100.00
65276;BME280;51875;49.994;14.052;2023-01-08T05:42:25;97871.53;;;0.69;100.00
65276;BME280;51875;49.994;14.052;2023-01-08T05:43:41;97864.66;;;0.65;100.00
65276;BME280;51875;49.994;14.052;2023-01-08T05:44:57;97866.41;;;0.76;100.00
65276;BME280;51875;49.994;14.052;2023-01-08T05:46:12;97880.16;;;0.75;100.00
65276;BME280;51875;49.994;14.052;2023-01-08T05:47:29;97874.97;;;0.61;100.00
65276;BME280;51875;49.994;14.052;2023-01-08T05:48:45;97875.88;;;0.74;100.00
65276;BME280;51875;49.994;14.052;2023-01-08T05:50:01;97870.72;;;0.81;100.00
65276;BME280;51875;49.994;14.052;2023-01-08T05:51:17;97879.31;;;0.73;100.00
65276;BME280;51875;49.994;14.052;2023-01-08T05:52:32;97868.97;;;0.65;100.00
65276;BME280;51875;49.994;14.052;2023-01-08T05:53:48;97875.81;;;0.60;100.00
65276;BME280;51875;49.994;14.052;2023-01-08T05:55:04;97870.66;;;0.55;100.00
65276;BME280;51875;49.994;14.052;2023-01-08T05:56:19;97865.44;;;0.30;100.00
65276;BME280;51875;49.994;14.052;2023-01-08T05:57:35;97860.28;;;0.28;100.00
65276;BME280;51875;49.994;14.052;2023-01-08T05:58:53;97855.22;;;0.58;100.00
65276;BME280;51875;49.994;14.052;2023-01-08T06:00:11;97844.06;;;0.70;100.00
65276;BME280;51875;49.994;14.052;2023-01-08T06:01:26;97839.78;;;0.83;100.00
65276;BME280;51875;49.994;14.052;2023-01-08T06:02:48;97837.22;;;0.83;100.00
65276;BME280;51875;49.994;14.052;2023-01-08T06:04:04;97831.22;;;0.72;100.00
65276;BME280;51875;49.994;14.052;2023-01-08T06:05:19;97826.91;;;0.74;100.00
65276;BME280;51875;49.994;14.052;2023-01-08T06:06:35;97820.91;;;0.75;100.00
65276;BME280;51875;49.994;14.052;2023-01-08T06:07:50;97820.06;;;0.85;100.00
65276;BME280;51875;49.994;14.052;2023-01-08T06:09:06;97828.59;;;0.68;100.00
65276;BME280;51875;49.994;14.052;2023-01-08T06:10:21;97820.91;;;0.86;100.00
65276;BME280;51875;49.994;14.052;2023-01-08T06:11:37;97820.88;;;0.70;100.00
65276;BME280;51875;49.994;14.052;2023-01-08T06:12:53;97816.56;;;0.55;100.00
65276;BME280;51875;49.994;14.052;2023-01-08T06:14:08;97813.16;;;0.64;100.00
65276;BME280;51875;49.994;14.052;2023-01-08T06:15:24;97808.88;;;0.80;100.00
65276;BME280;51875;49.994;14.052;2023-01-08T06:16:39;97815.75;;;0.81;100.00
65276;BME280;51875;49.994;14.052;2023-01-08T06:17:55;97805.44;;;0.96;100.00
65276;BME280;51875;49.994;14.052;2023-01-08T06:19:11;97811.47;;;0.92;100.00
65276;BME280;51875;49.994;14.052;2023-01-08T06:20:27;97805.44;;;0.96;100.00
65276;BME280;51875;49.994;14.052;2023-01-08T06:21:42;97807.16;;;1.02;100.00
65276;BME280;51875;49.994;14.052;2023-01-08T06:22:58;97810.59;;;0.93;100.00
65276;BME280;51875;49.994;14.052;2023-01-08T06:24:13;97808.91;;;1.02;100.00
65276;BME280;51875;49.994;14.052;2023-01-08T06:25:29;97808.88;;;0.80;100.00
65276;BME280;51875;49.994;14.052;2023-01-08T06:26:45;97800.28;;;0.76;100.00
65276;BME280;51875;49.994;14.052;2023-01-08T06:28:00;97803.69;;;0.55;100.00
65276;BME280;51875;49.994;14.052;2023-01-08T06:29:16;97795.13;;;0.65;100.00
65276;BME280;51875;49.994;14.052;2023-01-08T06:30:32;97797.72;;;0.82;100.00
65276;BME280;51875;49.994;14.052;2023-01-08T06:31:47;97798.56;;;0.77;100.00
65276;BME280;51875;49.994;14.052;2023-01-08T06:33:03;97783.97;;;0.87;100.00
65276;BME280;51875;49.994;14.052;2023-01-08T06:34:18;97783.13;;;0.86;100.00
65276;BME280;51875;49.994;14.052;2023-01-08T06:35:34;97777.09;;;0.96;100.00
65276;BME280;51875;49.994;14.052;2023-01-08T06:36:50;97783.13;;;0.86;100.00
65276;BME280;51875;49.994;14.052;2023-01-08T06:38:05;97787.38;;;1.04;100.00
65276;BME280;51875;49.994;14.052;2023-01-08T06:39:21;97785.69;;;0.95;100.00
65276;BME280;51875;49.994;14.052;2023-01-08T06:40:36;97796.00;;;1.03;100.00
65276;BME280;51875;49.994;14.052;2023-01-08T06:41:52;97800.28;;;0.93;100.00
65276;BME280;51875;49.994;14.052;2023-01-08T06:43:08;97812.31;;;0.97;100.00
65276;BME280;51875;49.994;14.052;2023-01-08T06:44:23;97808.00;;;0.89;100.00
65276;BME280;51875;49.994;14.052;2023-01-08T06:45:39;97812.31;;;0.96;100.00
65276;BME280;51875;49.994;14.052;2023-01-08T06:46:55;97814.91;;;1.15;100.00
65276;BME280;51875;49.994;14.052;2023-01-08T06:48:10;97799.44;;;1.16;100.00
65276;BME280;51875;49.994;14.052;2023-01-08T06:49:26;97809.75;;;1.29;100.00
65276;BME280;51875;49.994;14.052;2023-01-08T06:50:42;97805.44;;;1.29;100.00
65276;BME280;51875;49.994;14.052;2023-01-08T06:51:57;97809.72;;;1.25;100.00
65276;BME280;51875;49.994;14.052;2023-01-08T06:53:13;97809.75;;;1.24;100.00
65276;BME280;51875;49.994;14.052;2023-01-08T06:54:28;97802.88;;;1.15;100.00
65276;BME280;51875;49.994;14.052;2023-01-08T06:55:44;97801.16;;;1.12;100.00
65276;BME280;51875;49.994;14.052;2023-01-08T06:56:59;97795.16;;;1.07;100.00
65276;BME280;51875;49.994;14.052;2023-01-08T06:58:15;97794.28;;;1.11;100.00
65276;BME280;51875;49.994;14.052;2023-01-08T06:59:31;97796.88;;;1.08;100.00
65276;BME280;51875;49.994;14.052;2023-01-08T07:00:46;97799.44;;;1.15;100.00